Main page
METAR-TAF:

METAR-TAF

Airports :

Perpignan–Rivesaltes Airport

Perpignan, France

latitude: 42-44N, longitude: 002-52E, elevation: 43 m

Current weather observation

The report was made 30 minutes ago, at 07:30 UTC
Calm wind
Temperature 5°C
Humidity 87%
Pressure 1010 hPa
Visibility 10 km or more

METAR: LFMP 200730Z AUTO 00000KT 9999 NCD 05/03 Q1010 NOSIG

Time: 09:00 (08:00 UTC)

Forecast

The report was made 6 hours and 0 minutes ago, at 02:00 UTC
Forecast valid from 20 at 03 UTC to 21 at 03 UTC
Wind 5 kt from the West/Northwest
Visibility 10 km or more
no clouds below 1500 m and no cumulonimbus
Becoming
from 20 at 04 UTC to 20 at 06 UTC
Broken clouds at a height of 2000 ft
Becoming
from 20 at 10 UTC to 20 at 12 UTC
Wind 10 kt from the North
Probability 30% :
Temporary
from 20 at 15 UTC to 20 at 18 UTC
rain showers

TAF: LFMP 200200Z 2003/2103 30005KT CAVOK BECMG 2004/2006 BKN020 BECMG 2010/2012 36010KT PROB30 TEMPO 2015/2018 SHRA

Weather observations and forecasts of more than 4000 airports (METAR and TAF reports).

The available stations are represented by yellow and red dots on the map.

Hover mouse over dot to see the name of the station.

Then click to see weather observations and forecasts.

To change the map : click on the green buttons with a black cross to zoom in, on the green button with a dash to zoom out, or on the green arrows for adjacent maps.


METAR-TAF: